Point Reyes Station, CA

12:22 AM PDT on August 28, 2014 (GMT -0700)
Marin County DPW Corporation Yard | Change Station
CLOSE
Current Station
Personal Weather Station
Location: Nicasio, CA
Elevation: 443 ft
Nearby Weather Stations

Elev 443 ft 38.07 °N, 122.70 °W | Updated 2 minutes ago

Clear
Clear
60.1 °F
Feels Like 60.1 °F
N
0.0
Wind Variable Wind from South
Gusts 8.0 mph

Today
High -- | Low -- °F
--% Chance of Precip.
Yesterday
High -- | Low -- °F
Precip. -- in
6:37 AM 7:46 PM
Waxing Crescent, 7% visible
Pressure 30.02 in
Visibility 10.0 miles
Clouds Clear
Dew Point 60 °F
Humidity 100%
Rainfall 0.00 in
Snow Depth Not available.
UV 0 out of 12
Pollen 7.00 out of 12
Air Quality Not available.
Flu Activity Not available.
METAR KAPC 280654Z AUTO 00000KT 10SM CLR 14/12 A3004 RMK AO2 SLP164 T01390122

More Conditions Fewer Conditions

Pressure 30.02 in
Visibility 10.0 miles
Clouds Clear
Dew Point 60 °F
Humidity 100%
Rainfall 0.00 in
Snow Depth Not available.
UV 0 out of 12
Pollen 7.00 out of 12
Air Quality Not available.
Flu Activity Not available.
METAR KAPC 280654Z AUTO 00000KT 10SM CLR 14/12 A3004 RMK AO2 SLP164 T01390122

More Conditions Fewer Conditions

10-Day Weather Forecast

Almanac

Astronomy

Aug. 28, 2014 Rise Set
Actual Time 6:37 AM PDT 7:46 PM PDT
Civil Twilight 6:10 AM PDT 8:13 PM PDT
Nautical Twilight 5:38 AM PDT 8:45 PM PDT
Astronomical Twilight 5:04 AM PDT 9:19 PM PDT
Moon 9:31 AM PDT 9:17 PM PDT
Length of Visible Light 14h 03m
Length of Day
13h 08m
Tomorrow will be 2m 19s shorter.
Waxing Crescent, 7% of the Moon is Illuminated
Today
Waxing Crescent
Sep 2
First Quarter
Sep 8
Full
Sep 15
Last Quarter
Sep 24
New

Community

WunderPhotos

Upload Photos

1,747,912 photos uploaded!

Nearby

Snow Depth

Station Depth Elevation
Echo Peak 0 in 7800 ft
Rubicon #2 0 in 7500 ft
Forestdale Creek 0 in 8029 ft
Fallen Leaf 0 in 6300 ft
Blue Lakes 0 in 8000 ft

Earthquake Activity

City Distance Mag. Time & Date
Napa, California 27 miles 2.6 11:57 AM PDT
2014-08-27
The Geysers, California 51 miles 2.6 7:42 AM PDT
2014-08-27
Soledad, California 140 miles 2.6 12:15 PM PDT
2014-08-26
Napa, California 27 miles 2.5 10:56 AM PDT
2014-08-26
Minimum magnitude displayed is 2.5.

Coastal Water Temperatures

Place Temperature
Point Reyes, CA 64.9 °F
Arena Cove, CA 61.0 °F
San Francisco, CA 64.9 °F
Richmond, CA 66.9 °F

Nearby Weather Stations